Terminal Aerodrome Forecast
Issued by NWS

Home | Current Version | Previous Version | Text Only | Print | Product List | Glossary On
Versions: 1 2 3 4 5 6 7 8 9 10 11 12 13 14
000
FTUS42 KTBW 241128
TAFPGD
TAF
KPGD 241128Z 2412/2512 07010KT P6SM SKC
     FM241500 08014G22KT P6SM SCT040
     FM241900 09013G20KT P6SM BKN050
     FM242300 09010KT P6SM BKN050
     FM250300 09007KT P6SM SCT050
     FM250800 07006KT P6SM SCT250=

USA.gov is the U.S. government's official web portal to all federal, state and local government web resources and services.